Time;durP1;ratioP1;P1;durP2;ratioP2;P2;SDS_P1;SDS_P2;PMS_P1;PMS_P2;Temp;Humidity;BMP_temperature;BMP_pressure;BME280_temperature;BME280_humidity;BME280_pressure;Samples;Min_cycle;Max_cycle;Signal;HPM_P1;HPM_P2
2022/01/08 00:02:06;;;;;;;13.05;2.40;;;;;;;4.20;100.00;100739.94;5104054;27;20054;-74
2022/01/08 00:04:32;;;;;;;7.32;2.50;;;;;;;4.23;100.00;100739.47;5123533;27;20027;-74
2022/01/08 00:06:57;;;;;;;12.20;2.45;;;;;;;4.23;100.00;100750.47;5132430;27;20035;-73
2022/01/08 00:09:23;;;;;;;11.93;2.28;;;;;;;4.24;100.00;100746.63;5101417;28;20369;-74
2022/01/08 00:11:48;;;;;;;8.90;2.28;;;;;;;4.26;100.00;100749.09;5088622;27;20111;-73
2022/01/08 00:14:15;;;;;;;12.07;2.40;;;;;;;4.28;100.00;100743.38;5125661;27;20038;-74
2022/01/08 00:16:40;;;;;;;14.13;2.70;;;;;;;4.30;100.00;100747.53;5120942;27;20024;-74
2022/01/08 00:19:06;;;;;;;11.90;2.63;;;;;;;4.31;100.00;100751.13;5086361;28;20070;-73
2022/01/08 00:21:31;;;;;;;12.32;2.83;;;;;;;4.32;100.00;100756.41;5104751;27;20035;-74
2022/01/08 00:23:57;;;;;;;23.17;3.33;;;;;;;4.35;100.00;100747.66;5126751;27;20039;-74
2022/01/08 00:26:23;;;;;;;12.52;2.40;;;;;;;4.38;100.00;100749.06;5115413;27;20032;-74
2022/01/08 00:28:48;;;;;;;15.38;3.05;;;;;;;4.39;100.00;100751.56;5117839;27;20043;-74
2022/01/08 00:31:14;;;;;;;11.70;2.97;;;;;;;4.43;100.00;100749.13;5080089;28;20051;-74
2022/01/08 00:33:39;;;;;;;14.65;3.08;;;;;;;4.46;100.00;100748.66;5106119;27;20036;-73
2022/01/08 00:36:05;;;;;;;12.95;2.88;;;;;;;4.48;100.00;100751.97;5109243;27;20035;-74
2022/01/08 00:38:31;;;;;;;16.63;2.92;;;;;;;4.51;100.00;100751.47;5085117;27;20387;-73
2022/01/08 00:40:56;;;;;;;11.65;2.78;;;;;;;4.51;100.00;100748.72;5099966;28;20035;-74
2022/01/08 00:43:21;;;;;;;;;;;;;;;4.56;100.00;100740.56;5081379;28;20051;-74
2022/01/08 00:45:47;;;;;;;18.20;3.00;;;;;;;4.59;100.00;100753.00;5101997;27;19915;-74
2022/01/08 00:48:12;;;;;;;16.83;2.80;;;;;;;4.61;100.00;100751.66;5088992;28;20039;-74
2022/01/08 00:50:38;;;;;;;15.98;2.75;;;;;;;4.62;100.00;100750.56;5113314;27;20028;-74
2022/01/08 00:53:03;;;;;;;17.98;3.03;;;;;;;4.65;100.00;100750.13;5096121;28;20032;-74
2022/01/08 00:55:29;;;;;;;11.07;2.72;;;;;;;4.67;100.00;100755.34;5111700;27;20036;-74
2022/01/08 00:57:54;;;;;;;18.92;3.45;;;;;;;4.69;100.00;100754.03;5099713;28;20057;-74
2022/01/08 01:00:20;;;;;;;14.77;3.00;;;;;;;4.72;100.00;100760.13;5085327;28;20035;-74
2022/01/08 01:02:45;;;;;;;15.57;3.03;;;;;;;4.74;100.00;100744.19;5088144;28;20036;-73
2022/01/08 01:05:11;;;;;;;18.20;3.22;;;;;;;4.77;100.00;100743.69;5080395;28;20028;-74
2022/01/08 01:07:36;;;;;;;24.73;4.00;;;;;;;4.80;100.00;100748.69;5098274;28;20464;-74
2022/01/08 01:10:03;;;;;;;17.95;3.35;;;;;;;4.81;100.00;100750.34;5109991;28;20488;-74
2022/01/08 01:12:28;;;;;;;20.20;3.00;;;;;;;4.84;100.00;100750.69;5106072;28;20036;-74
2022/01/08 01:14:54;;;;;;;16.13;2.90;;;;;;;4.85;100.00;100749.63;5080763;28;20097;-74
2022/01/08 01:17:19;;;;;;;19.75;3.72;;;;;;;4.88;100.00;100748.28;5090776;28;20031;-74
2022/01/08 01:19:47;;;;;;;16.85;3.83;;;;;;;4.89;100.00;100752.69;5115565;28;20023;-74
2022/01/08 01:22:16;;;;;;;19.17;3.85;;;;;;;4.91;100.00;100751.34;5082226;28;20055;-74
2022/01/08 01:24:41;;;;;;;16.60;3.53;;;;;;;4.95;100.00;100743.41;5127295;27;20539;-74
2022/01/08 01:29:54;;;;;;;19.63;4.03;;;;;;;4.98;100.00;100745.66;5106365;28;20032;-74
2022/01/08 01:43:27;;;;;;;17.65;3.25;;;;;;;5.07;100.00;100721.28;5102281;28;20031;-73
2022/01/08 01:48:36;;;;;;;16.52;3.85;;;;;;;5.09;100.00;100713.63;5099581;28;20031;-73
2022/01/08 01:51:02;;;;;;;23.23;3.33;;;;;;;5.11;100.00;100706.78;5097881;28;20483;-74
2022/01/08 01:53:28;;;;;;;19.70;3.95;;;;;;;5.12;100.00;100702.94;5103323;28;20028;-74
2022/01/08 01:55:53;;;;;;;20.95;3.38;;;;;;;5.13;100.00;100707.38;5114987;28;20039;-74
2022/01/08 01:58:18;;;;;;;15.35;3.63;;;;;;;5.13;100.00;100707.38;5088377;28;20032;-74
2022/01/08 02:00:45;;;;;;;14.95;3.55;;;;;;;5.13;100.00;100710.13;5115495;28;20031;-74
2022/01/08 02:03:10;;;;;;;20.58;3.65;;;;;;;5.14;100.00;100706.28;5129624;28;20499;-74
2022/01/08 02:05:36;;;;;;;20.45;3.72;;;;;;;5.15;100.00;100707.09;5090930;28;20148;-75
2022/01/08 02:08:01;;;;;;;16.48;3.72;;;;;;;5.17;100.00;100712.38;5100360;28;20028;-75
2022/01/08 02:10:27;;;;;;;26.20;4.15;;;;;;;5.17;100.00;100715.94;5109655;28;20407;-74
2022/01/08 02:12:52;;;;;;;16.42;3.38;;;;;;;5.18;100.00;100717.59;5100214;28;20027;-74
2022/01/08 02:15:18;;;;;;;18.08;3.15;;;;;;;5.19;100.00;100711.03;5129090;27;20028;-74
2022/01/08 02:17:43;;;;;;;19.45;3.58;;;;;;;5.20;100.00;100714.63;5112873;27;20027;-74
2022/01/08 02:20:10;;;;;;;25.95;4.00;;;;;;;5.19;100.00;100710.22;5108178;27;20036;-74
2022/01/08 02:22:35;;;;;;;17.58;3.53;;;;;;;5.19;100.00;100718.47;5119644;27;20031;-74
2022/01/08 02:25:01;;;;;;;19.95;4.20;;;;;;;5.19;100.00;100724.81;5096839;28;20158;-74
2022/01/08 02:27:26;;;;;;;17.77;3.60;;;;;;;5.19;100.00;100722.03;5108836;27;20400;-74
2022/01/08 02:29:52;;;;;;;18.40;3.45;;;;;;;5.19;100.00;100707.44;5108345;28;20027;-74
2022/01/08 02:32:19;;;;;;;21.67;3.83;;;;;;;5.18;100.00;100705.78;5101679;28;20122;-74
2022/01/08 02:34:46;;;;;;;20.65;4.03;;;;;;;5.19;100.00;100707.44;5104800;27;20027;-74
2022/01/08 02:37:13;;;;;;;24.55;4.25;;;;;;;5.19;100.00;100702.78;5120409;27;20452;-74
2022/01/08 02:39:42;;;;;;;16.13;3.10;;;;;;;5.18;100.00;100703.00;5101918;27;20031;-74
2022/01/08 02:42:09;;;;;;;24.27;4.30;;;;;;;5.18;100.00;100703.00;5124655;27;20403;-73
2022/01/08 02:44:35;;;;;;;19.05;4.05;;;;;;;5.16;100.00;100697.78;5138389;27;20118;-74
2022/01/08 02:47:01;;;;;;;21.85;3.35;;;;;;;5.17;100.00;100704.94;5113197;28;20030;-74
2022/01/08 02:49:26;;;;;;;20.20;3.85;;;;;;;5.16;100.00;100703.28;5138530;27;20035;-74
2022/01/08 02:51:52;;;;;;;27.27;4.60;;;;;;;5.17;100.00;100706.88;5114576;27;20023;-74
2022/01/08 02:54:17;;;;;;;18.38;3.55;;;;;;;5.16;100.00;100703.28;5115040;27;20019;-74
2022/01/08 02:56:47;;;;;;;19.60;4.22;;;;;;;5.15;100.00;100707.97;5132094;27;20479;-74
2022/01/08 02:59:13;;;;;;;23.92;3.97;;;;;;;5.15;100.00;100705.22;5108699;27;20378;-74
2022/01/08 03:01:38;;;;;;;20.63;3.58;;;;;;;5.15;100.00;100702.47;5137385;27;20039;-74
2022/01/08 03:04:04;;;;;;;23.40;4.18;;;;;;;5.15;100.00;100707.09;5117773;27;20027;-74
2022/01/08 03:06:30;;;;;;;25.70;4.68;;;;;;;5.15;100.00;100699.72;5107047;27;20427;-74
2022/01/08 03:08:56;;;;;;;24.08;4.18;;;;;;;5.17;100.00;100695.84;5103042;27;20475;-73
2022/01/08 03:11:21;;;;;;;23.00;4.30;;;;;;;5.17;100.00;100701.34;5117474;27;20027;-74
2022/01/08 03:13:47;;;;;;;19.15;3.42;;;;;;;5.16;100.00;100700.53;5129560;27;20015;-74
2022/01/08 03:16:13;;;;;;;22.98;3.95;;;;;;;5.14;100.00;100702.69;5106225;28;20024;-74
2022/01/08 03:18:38;;;;;;;23.98;4.43;;;;;;;5.15;100.00;100704.34;5122032;27;20028;-74
2022/01/08 03:21:14;;;;;;;23.27;4.13;;;;;;;5.15;100.00;100701.59;5123812;27;20035;-74
2022/01/08 03:23:47;;;;;;;21.08;3.83;;;;;;;5.12;100.00;100697.44;5117030;27;20028;-74
2022/01/08 03:26:12;;;;;;;19.05;3.70;;;;;;;5.12;100.00;100688.34;5112977;27;20045;-74
2022/01/08 03:28:38;;;;;;;24.35;4.60;;;;;;;5.10;100.00;100691.38;5092872;27;20055;-74
2022/01/08 03:31:03;;;;;;;29.23;4.72;;;;;;;5.09;100.00;100692.44;5101997;28;20044;-74
2022/01/08 03:33:29;;;;;;;29.05;4.32;;;;;;;5.04;100.00;100692.38;5104372;28;20089;-74
2022/01/08 03:35:54;;;;;;;23.20;4.47;;;;;;;5.05;100.00;100693.22;5113458;28;20032;-74
2022/01/08 03:38:20;;;;;;;24.48;4.95;;;;;;;5.04;100.00;100683.28;5116485;28;20054;-73
2022/01/08 03:40:45;;;;;;;26.30;4.28;;;;;;;5.01;100.00;100681.84;5105392;28;20045;-74
2022/01/08 03:43:11;;;;;;;27.25;4.80;;;;;;;5.01;100.00;100692.88;5098215;28;20027;-73
2022/01/08 03:45:36;;;;;;;21.55;4.30;;;;;;;5.01;100.00;100697.53;5101485;28;20042;-73
2022/01/08 03:50:30;;;;;;;22.02;4.20;;;;;;;4.97;100.00;100699.97;5112779;28;20399;-74
2022/01/08 03:52:55;;;;;;;20.45;4.13;;;;;;;4.97;100.00;100701.91;5100037;27;20032;-73
2022/01/08 03:55:22;;;;;;;21.58;4.13;;;;;;;4.95;100.00;100690.31;5105545;28;20049;-74
2022/01/08 03:57:47;;;;;;;29.73;4.50;;;;;;;4.96;100.00;100681.81;5117185;28;20027;-74
2022/01/08 04:00:13;;;;;;;23.52;4.03;;;;;;;4.99;100.00;100680.47;5105008;27;20039;-73
2022/01/08 04:02:39;;;;;;;22.08;4.47;;;;;;;4.97;100.00;100671.63;5109058;27;20091;-73
2022/01/08 04:05:05;;;;;;;20.73;3.42;;;;;;;4.97;100.00;100671.63;5114975;27;20487;-74
2022/01/08 04:07:30;;;;;;;21.60;4.10;;;;;;;4.96;100.00;100676.28;5094641;28;20031;-73
2022/01/08 04:09:56;;;;;;;23.08;4.57;;;;;;;4.96;100.00;100672.69;5115371;28;20499;-73
2022/01/08 04:12:31;;;;;;;23.13;4.65;;;;;;;4.95;100.00;100674.63;5103196;28;20028;-74
2022/01/08 04:15:06;;;;;;;27.55;4.68;;;;;;;4.95;100.00;100674.63;5111134;28;20035;-74
2022/01/08 04:17:31;;;;;;;19.65;3.88;;;;;;;4.95;100.00;100674.63;5113596;28;20028;-74
2022/01/08 04:19:56;;;;;;;31.30;5.65;;;;;;;4.93;100.00;100672.13;5111767;28;20032;-73
2022/01/08 04:22:24;;;;;;;28.90;5.90;;;;;;;4.92;100.00;100675.13;5107751;28;20399;-73
2022/01/08 04:24:49;;;;;;;29.42;4.55;;;;;;;4.91;100.00;100670.72;5113726;28;20024;-74
2022/01/08 04:27:15;;;;;;;28.17;4.50;;;;;;;4.88;100.00;100666.53;5114816;28;20038;-74
2022/01/08 04:29:41;;;;;;;28.35;4.72;;;;;;;4.85;100.00;100664.31;5111164;27;20055;-73
2022/01/08 04:32:07;;;;;;;30.13;4.85;;;;;;;4.87;100.00;100651.09;5113656;27;20384;-73
2022/01/08 04:34:32;;;;;;;25.00;4.80;;;;;;;4.89;100.00;100672.88;5126967;27;20035;-73
2022/01/08 04:36:58;;;;;;;32.97;4.97;;;;;;;4.87;100.00;100666.78;5110790;28;20510;-73
2022/01/08 04:39:23;;;;;;;27.15;4.95;;;;;;;4.84;100.00;100665.38;5093232;27;20039;-73
2022/01/08 04:41:49;;;;;;;27.77;4.22;;;;;;;4.85;100.00;100647.78;5099190;28;20031;-74
2022/01/08 04:44:14;;;;;;;26.88;5.10;;;;;;;4.86;100.00;100638.44;5105080;27;20038;-74
2022/01/08 04:46:41;;;;;;;28.48;5.05;;;;;;;4.85;100.00;100635.97;5108220;27;20035;-74
2022/01/08 04:49:07;;;;;;;35.85;5.15;;;;;;;4.83;100.00;100640.88;5111556;28;20039;-74
2022/01/08 04:51:32;;;;;;;26.40;4.28;;;;;;;4.83;100.00;100636.19;5116307;27;20098;-74
2022/01/08 04:53:58;;;;;;;24.45;4.90;;;;;;;4.79;100.00;100631.44;5107778;28;20072;-73
2022/01/08 04:56:23;;;;;;;24.20;4.93;;;;;;;4.80;100.00;100641.38;5122973;27;20384;-73
2022/01/08 04:58:49;;;;;;;27.10;4.45;;;;;;;4.80;100.00;100636.69;5093018;27;20076;-73
2022/01/08 05:01:15;;;;;;;28.15;4.65;;;;;;;4.79;100.00;100636.94;5092526;28;20035;-73
2022/01/08 05:03:40;;;;;;;24.70;5.32;;;;;;;4.76;100.00;100640.19;5116168;27;20103;-73
2022/01/08 05:06:06;;;;;;;24.85;4.30;;;;;;;4.74;100.00;100651.47;5124471;27;20035;-73
2022/01/08 05:08:31;;;;;;;30.92;5.47;;;;;;;4.75;100.00;100636.63;5091728;28;20032;-73
2022/01/08 05:10:57;;;;;;;27.38;4.57;;;;;;;4.74;100.00;100636.88;5089899;27;20038;-73
2022/01/08 05:13:22;;;;;;;28.58;5.18;;;;;;;4.69;100.00;100627.47;5121394;27;20028;-73
2022/01/08 05:15:48;;;;;;;26.50;4.40;;;;;;;4.66;100.00;100635.38;5091614;28;20031;-74
2022/01/08 05:18:13;;;;;;;25.58;4.43;;;;;;;4.65;100.00;100631.81;5090303;28;20028;-73
2022/01/08 05:20:41;;;;;;;25.90;4.88;;;;;;;4.65;100.00;100619.94;5077899;27;20380;-73
2022/01/08 05:23:07;;;;;;;28.98;5.15;;;;;;;4.61;100.00;100611.38;5114860;28;20050;-73
2022/01/08 05:25:32;;;;;;;24.33;4.43;;;;;;;4.57;100.00;100606.63;5079876;28;20028;-73
2022/01/08 05:27:58;;;;;;;23.85;4.68;;;;;;;4.56;100.00;100616.78;5098553;28;20038;-73
2022/01/08 05:30:24;;;;;;;23.75;4.55;;;;;;;4.52;100.00;100601.06;5122953;27;20133;-74
2022/01/08 05:32:49;;;;;;;23.63;4.65;;;;;;;4.53;100.00;100599.97;5094694;28;20527;-74
2022/01/08 05:35:15;;;;;;;26.73;4.75;;;;;;;4.48;100.00;100611.72;5091866;28;20024;-74
2022/01/08 05:37:41;;;;;;;31.60;5.18;;;;;;;4.46;100.00;100622.16;5099821;28;20031;-75
2022/01/08 05:40:07;;;;;;;24.15;4.43;;;;;;;4.45;100.00;100625.97;5068597;28;20111;-74
2022/01/08 05:42:32;;;;;;;25.42;5.43;;;;;;;4.40;100.00;100618.50;5077419;28;20439;-74
2022/01/08 05:44:58;;;;;;;25.42;4.72;;;;;;;4.38;100.00;100609.66;5086820;28;20036;-75
2022/01/08 05:47:27;;;;;;;31.15;4.72;;;;;;;4.39;100.00;100610.47;5093544;28;20055;-75
2022/01/08 05:49:52;;;;;;;29.20;4.95;;;;;;;4.37;100.00;100596.16;5083247;28;20038;-74
2022/01/08 05:52:18;;;;;;;30.20;5.88;;;;;;;4.33;100.00;100600.50;5093068;28;20032;-73
2022/01/08 05:54:44;;;;;;;34.25;5.53;;;;;;;4.33;100.00;100595.00;5098629;28;20619;-74
2022/01/08 05:57:09;;;;;;;31.02;5.43;;;;;;;4.32;100.00;100596.91;5115125;28;20046;-74
2022/01/08 05:59:35;;;;;;;27.23;5.63;;;;;;;4.30;100.00;100585.31;5097937;28;20028;-74
2022/01/08 06:02:00;;;;;;;32.08;5.18;;;;;;;4.30;100.00;100579.81;5116603;28;20039;-74
2022/01/08 06:04:25;;;;;;;29.35;5.35;;;;;;;4.30;100.00;100581.75;5111607;28;20027;-74
2022/01/08 06:06:51;;;;;;;38.22;5.85;;;;;;;4.28;100.00;100576.50;5109050;27;20073;-73
2022/01/08 06:09:16;;;;;;;31.48;5.45;;;;;;;4.30;100.00;100579.00;5119091;28;20039;-74
2022/01/08 06:11:42;;;;;;;34.10;5.03;;;;;;;4.29;100.00;100575.44;5110704;27;20055;-73
2022/01/08 06:14:08;;;;;;;28.27;4.85;;;;;;;4.28;100.00;100570.16;5095003;28;20048;-73
2022/01/08 06:16:35;;;;;;;27.00;5.38;;;;;;;4.27;100.00;100563.00;5100223;28;20035;-73
2022/01/08 06:19:08;;;;;;;27.15;5.35;;;;;;;4.27;100.00;100566.59;5076901;28;20044;-73
2022/01/08 06:21:34;;;;;;;35.17;4.72;;;;;;;4.29;100.00;100566.31;5069653;28;20027;-73
2022/01/08 06:24:00;;;;;;;25.33;4.55;;;;;;;4.28;100.00;100564.66;5098209;28;20039;-74
2022/01/08 06:26:25;;;;;;;34.10;5.90;;;;;;;4.28;100.00;100565.50;5096846;28;20554;-74
2022/01/08 06:28:51;;;;;;;38.08;5.65;;;;;;;4.28;100.00;100565.50;5117907;28;20027;-74
2022/01/08 06:31:18;;;;;;;32.22;4.90;;;;;;;4.27;100.00;100563.00;5110323;28;20039;-73
2022/01/08 06:33:44;;;;;;;31.88;4.68;;;;;;;4.26;100.00;100562.16;5109802;28;20508;-74
2022/01/08 06:36:09;;;;;;;31.38;5.25;;;;;;;4.29;100.00;100561.69;5115967;28;20035;-73
2022/01/08 06:38:35;;;;;;;38.78;5.70;;;;;;;4.28;100.00;100556.41;5105815;28;20020;-73
2022/01/08 06:41:00;;;;;;;27.42;4.78;;;;;;;4.29;100.00;100564.44;5112251;28;20065;-74
2022/01/08 06:43:25;;;;;;;30.30;4.85;;;;;;;4.28;100.00;100551.75;5115037;28;20039;-73
2022/01/08 06:45:51;;;;;;;25.10;4.88;;;;;;;4.28;100.00;100559.16;5110669;28;20028;-74
2022/01/08 06:48:16;;;;;;;33.60;5.32;;;;;;;4.31;100.00;100555.91;5098121;28;20084;-74
2022/01/08 06:50:42;;;;;;;30.85;5.15;;;;;;;4.30;100.00;100552.34;5107970;28;20099;-73
2022/01/08 06:53:07;;;;;;;29.30;4.72;;;;;;;4.28;100.00;100554.50;5111770;28;20392;-74
2022/01/08 06:55:33;;;;;;;25.65;5.22;;;;;;;4.29;100.00;100555.31;5115820;28;20039;-73
2022/01/08 06:57:59;;;;;;;29.38;4.75;;;;;;;4.28;100.00;100553.66;5110022;27;20043;-74
2022/01/08 07:00:25;;;;;;;28.92;4.85;;;;;;;4.27;100.00;100554.75;5104932;28;20064;-74
2022/01/08 07:02:50;;;;;;;28.42;4.50;;;;;;;4.27;100.00;100560.25;5113364;28;20027;-74
2022/01/08 07:05:15;;;;;;;29.55;5.43;;;;;;;4.29;100.00;100555.31;5108156;28;20032;-74
2022/01/08 07:07:41;;;;;;;24.73;4.95;;;;;;;4.29;100.00;100560.81;5117914;28;20421;-74
2022/01/08 07:10:07;;;;;;;28.38;4.30;;;;;;;4.28;100.00;100554.50;5091006;28;20036;-73
2022/01/08 07:12:32;;;;;;;27.58;5.18;;;;;;;4.30;100.00;100544.09;5076537;28;20039;-73
2022/01/08 07:14:58;;;;;;;27.75;4.40;;;;;;;4.28;100.00;100543.50;5112699;28;20031;-74
2022/01/08 07:17:23;;;;;;;30.50;4.00;;;;;;;4.32;100.00;100552.06;5110984;28;20129;-73
2022/01/08 07:19:49;;;;;;;21.98;4.15;;;;;;;4.33;100.00;100545.50;5113248;28;20028;-73
2022/01/08 07:22:15;;;;;;;30.42;4.40;;;;;;;4.33;100.00;100537.25;5113011;28;20032;-73
2022/01/08 07:24:40;;;;;;;24.48;4.90;;;;;;;4.35;100.00;100526.84;5109565;27;20059;-73
2022/01/08 07:27:06;;;;;;;33.63;5.22;;;;;;;4.37;100.00;100521.91;5114902;28;20035;-74
2022/01/08 07:29:31;;;;;;;24.42;4.55;;;;;;;4.38;100.00;100518.91;5115064;28;20122;-73
2022/01/08 07:31:57;;;;;;;31.73;5.03;;;;;;;4.41;100.00;100514.81;5115987;28;20062;-73
2022/01/08 07:34:23;;;;;;;31.38;4.82;;;;;;;4.45;100.00;100513.22;5114397;28;20028;-73
2022/01/08 07:36:48;;;;;;;24.60;4.45;;;;;;;4.46;100.00;100506.66;5104190;27;20028;-74
2022/01/08 07:39:13;;;;;;;29.05;3.92;;;;;;;4.50;100.00;100517.97;5101490;28;20027;-73
2022/01/08 07:41:39;;;;;;;28.92;4.50;;;;;;;4.50;100.00;100507.78;5107198;27;20038;-73
2022/01/08 07:44:05;;;;;;;31.70;4.80;;;;;;;4.53;100.00;100501.78;5114717;28;20028;-73
2022/01/08 07:46:30;;;;;;;28.95;4.88;;;;;;;4.55;100.00;100505.13;5112085;28;20059;-73
2022/01/08 07:48:56;;;;;;;27.50;4.45;;;;;;;4.59;100.00;100511.75;5102173;28;20039;-75
2022/01/08 07:51:21;;;;;;;32.55;4.80;;;;;;;4.62;100.00;100510.44;5105461;28;20028;-73
2022/01/08 07:53:46;;;;;;;25.98;3.97;;;;;;;4.64;100.00;100519.25;5113287;27;20064;-73
2022/01/08 07:56:12;;;;;;;31.73;4.93;;;;;;;4.63;100.00;100515.69;5116499;28;20031;-73
2022/01/08 07:58:37;;;;;;;31.10;4.40;;;;;;;4.67;100.00;100502.25;5111881;27;20031;-73
2022/01/08 08:01:03;;;;;;;31.85;4.80;;;;;;;4.69;100.00;100495.41;5115209;28;20031;-73
2022/01/08 08:03:28;;;;;;;32.03;4.65;;;;;;;4.72;100.00;100483.06;5106130;28;20039;-72
2022/01/08 08:05:54;;;;;;;28.13;4.60;;;;;;;4.74;100.00;100483.66;5089930;28;20476;-73
2022/01/08 08:08:20;;;;;;;32.60;4.70;;;;;;;4.76;100.00;100481.44;5065701;28;20032;-73
2022/01/08 08:10:50;;;;;;;32.85;4.30;;;;;;;4.80;100.00;100466.09;5108178;28;20487;-73
2022/01/08 08:13:21;;;;;;;33.35;4.53;;;;;;;4.80;100.00;100468.03;5109334;28;20047;-73
2022/01/08 08:15:47;;;;;;;25.45;4.00;;;;;;;4.83;100.00;100462.00;5111713;28;20476;-73
2022/01/08 08:18:13;;;;;;;28.60;4.45;;;;;;;4.85;100.00;100462.59;5088353;28;20023;-73
2022/01/08 08:20:39;;;;;;;31.70;5.25;;;;;;;4.88;100.00;100459.31;5115775;28;20024;-73
2022/01/08 08:23:05;;;;;;;33.83;4.50;;;;;;;4.92;100.00;100460.44;5107569;28;20124;-73
2022/01/08 08:25:30;;;;;;;34.08;5.25;;;;;;;4.93;100.00;100454.72;5110082;28;20028;-73
2022/01/08 08:27:56;;;;;;;38.53;5.32;;;;;;;4.98;100.00;100453.91;5077678;28;20032;-73
2022/01/08 08:30:21;;;;;;;35.13;5.93;;;;;;;5.00;100.00;100439.91;5103052;28;20044;-73
2022/01/08 08:32:47;;;;;;;25.17;4.55;;;;;;;5.02;100.00;100435.81;5105771;28;20044;-73
2022/01/08 08:35:13;;;;;;;30.67;4.55;;;;;;;5.04;100.00;100432.78;5103554;28;20028;-73
2022/01/08 08:37:38;;;;;;;33.10;4.45;;;;;;;5.06;100.00;100434.19;5073278;28;20073;-73
2022/01/08 08:40:04;;;;;;;33.70;4.55;;;;;;;5.09;100.00;100430.91;5109143;28;20032;-73
2022/01/08 08:46:07;;;;;;;35.53;4.80;;;;;;;5.15;100.00;100418.88;5111346;28;20043;-73
2022/01/08 08:48:34;;;;;;;36.97;5.65;;;;;;;5.15;100.00;100416.13;5092799;28;20043;-74
2022/01/08 08:50:59;;;;;;;32.60;5.00;;;;;;;5.21;100.00;100411.50;5092315;28;20530;-74
2022/01/08 08:53:25;;;;;;;35.88;4.80;;;;;;;5.23;100.00;100416.72;5113270;28;20031;-74
2022/01/08 08:55:50;;;;;;;23.63;4.07;;;;;;;5.25;100.00;100406.28;5091153;28;20067;-74
2022/01/08 08:58:16;;;;;;;33.22;5.47;;;;;;;5.27;100.00;100399.44;5115438;28;20031;-74
2022/01/08 09:00:41;;;;;;;34.40;4.57;;;;;;;5.29;100.00;100383.50;5107196;28;20031;-74
2022/01/08 09:03:08;;;;;;;35.15;5.65;;;;;;;5.32;100.00;100371.09;5091693;28;20115;-74
2022/01/08 09:05:33;;;;;;;33.90;5.05;;;;;;;5.34;100.00;100368.91;5113828;28;20114;-74
2022/01/08 09:07:58;;;;;;;23.92;4.50;;;;;;;5.36;100.00;100366.72;5104322;28;20038;-74
2022/01/08 09:10:25;;;;;;;31.50;5.03;;;;;;;5.38;100.00;100357.13;5111021;28;20028;-74
2022/01/08 09:12:51;;;;;;;29.83;4.25;;;;;;;5.43;100.00;100344.47;5112521;28;20036;-74
2022/01/08 09:15:20;;;;;;;29.13;4.72;;;;;;;5.46;100.00;100338.41;5108879;28;20516;-75
2022/01/08 09:17:47;;;;;;;30.67;5.03;;;;;;;5.50;100.00;100340.41;5110858;28;20031;-75
2022/01/08 09:20:12;;;;;;;33.90;5.30;;;;;;;5.50;100.00;100323.03;5104642;28;20059;-75
2022/01/08 09:30:05;;;;;;;21.10;4.40;;;;;;;5.64;100.00;100306.88;5103648;28;20067;-74
2022/01/08 09:32:30;;;;;;;39.60;4.93;;;;;;;5.68;100.00;100296.97;5097744;28;20036;-74
2022/01/08 09:34:55;;;;;;;35.60;4.57;;;;;;;5.70;100.00;100295.63;5100598;28;20031;-74
2022/01/08 09:37:21;;;;;;;39.40;5.43;;;;;;;5.74;100.00;100295.91;5119821;28;20080;-74
2022/01/08 09:39:46;;;;;;;43.95;5.63;;;;;;;5.80;100.00;100292.09;5088927;28;20027;-75
2022/01/08 09:42:12;;;;;;;41.72;4.97;;;;;;;5.81;100.00;100289.06;5080710;28;20471;-74
2022/01/08 09:44:39;;;;;;;39.88;5.78;;;;;;;5.86;100.00;100287.44;5079319;28;20028;-76
2022/01/08 09:47:05;;;;;;;38.72;5.50;;;;;;;5.88;100.00;100274.19;5117857;28;20035;-75
2022/01/08 09:49:31;;;;;;;36.03;5.55;;;;;;;5.92;100.00;100264.31;5079537;28;20039;-74
2022/01/08 09:51:56;;;;;;;30.25;4.70;;;;;;;5.94;100.00;100251.13;5114834;28;20089;-74
2022/01/08 09:54:22;;;;;;;41.58;5.38;;;;;;;5.97;100.00;100240.38;5105699;28;20023;-74
2022/01/08 09:56:47;;;;;;;39.08;5.00;;;;;;;5.99;100.00;100235.44;5081486;28;20027;-74
2022/01/08 09:59:13;;;;;;;34.72;4.43;;;;;;;6.01;100.00;100227.69;5089537;28;20046;-74
2022/01/08 10:01:38;;;;;;;39.70;5.50;;;;;;;6.03;100.00;100222.75;5096748;28;20023;-74
2022/01/08 10:04:05;;;;;;;34.00;5.00;;;;;;;6.06;100.00;100215.06;5062436;28;20035;-74
2022/01/08 10:06:35;;;;;;;30.52;5.07;;;;;;;6.07;100.00;100213.94;5118451;28;20474;-74
2022/01/08 10:09:00;;;;;;;40.45;5.30;;;;;;;6.10;100.00;100197.69;5114788;28;20058;-74
2022/01/08 10:11:26;;;;;;;31.48;4.35;;;;;;;6.12;100.00;100205.69;5094043;28;20028;-74
2022/01/08 10:14:01;;;;;;;31.00;4.72;;;;;;;6.14;100.00;100203.50;5066271;28;20065;-74
2022/01/08 10:19:23;;;;;;;39.28;5.57;;;;;;;6.21;100.00;100187.50;5112163;28;20046;-74
2022/01/08 10:21:49;;;;;;;34.03;5.53;;;;;;;6.22;100.00;100173.44;5058554;28;20047;-74
2022/01/08 10:24:20;;;;;;;36.13;5.35;;;;;;;6.28;100.00;100167.94;5115635;28;20073;-73
2022/01/08 10:26:46;;;;;;;31.50;4.55;;;;;;;6.28;100.00;100162.44;5101550;28;20066;-74
2022/01/08 10:29:13;;;;;;;23.88;4.28;;;;;;;6.32;100.00;100156.06;5076804;28;20500;-74
2022/01/08 10:31:43;;;;;;;36.97;5.53;;;;;;;6.33;100.00;100155.00;5093125;28;20105;-73
2022/01/08 10:34:16;;;;;;;38.50;4.80;;;;;;;6.36;100.00;100143.41;5078543;28;20031;-73
2022/01/08 10:36:57;;;;;;;40.97;5.57;;;;;;;6.40;100.00;100132.63;5081771;28;20559;-74
2022/01/08 10:39:33;;;;;;;32.92;5.20;;;;;;;6.43;100.00;100127.38;5075203;28;20039;-75
2022/01/08 10:42:07;;;;;;;36.35;5.30;;;;;;;6.45;100.00;100119.66;5104410;28;20032;-74
2022/01/08 10:44:33;;;;;;;34.47;4.75;;;;;;;6.46;100.00;100112.22;5105537;28;20032;-74
2022/01/08 10:47:11;;;;;;;35.08;5.10;;;;;;;6.51;100.00;100101.19;5110200;28;20028;-75
2022/01/08 10:49:43;;;;;;;33.33;5.18;;;;;;;6.54;100.00;100095.13;5110502;28;20535;-73
2022/01/08 10:52:12;;;;;;;33.70;4.30;;;;;;;6.58;100.00;100084.38;5115869;28;20526;-73
2022/01/08 10:54:44;;;;;;;37.00;4.85;;;;;;;6.61;100.00;100078.28;5094448;28;20024;-74
2022/01/08 10:57:12;;;;;;;34.08;4.57;;;;;;;6.64;100.00;100066.69;5113702;27;20031;-73
2022/01/08 10:59:38;;;;;;;32.72;4.55;;;;;;;6.66;100.00;100067.25;5104628;28;20024;-73
2022/01/08 11:02:13;;;;;;;37.70;4.72;;;;;;;6.66;100.00;100039.66;5110633;27;20024;-73
2022/01/08 11:04:45;;;;;;;32.50;4.85;;;;;;;6.69;100.00;100037.16;5084431;28;20020;-73
2022/01/08 11:07:28;;;;;;;42.63;4.97;;;;;;;6.72;100.00;100025.56;5094528;28;20038;-73
2022/01/08 11:09:59;;;;;;;27.73;3.90;;;;;;;6.74;100.00;100024.44;5086136;28;20276;-73
2022/01/08 11:12:30;;;;;;;34.55;4.85;;;;;;;6.78;100.00;100008.97;5102035;28;20032;-71
2022/01/08 11:15:22;;;;;;;35.20;4.40;;;;;;;6.80;100.00;99999.31;5078837;27;20028;-76
2022/01/08 11:17:47;;;;;;;36.08;5.43;;;;;;;6.80;100.00;99988.28;5101464;27;20027;-77
2022/01/08 11:20:30;;;;;;;30.98;4.00;;;;;;;6.85;100.00;99970.84;5113812;28;20055;-77
2022/01/08 11:22:57;;;;;;;35.07;5.53;;;;;;;6.87;100.00;99966.69;5093487;28;20046;-77
2022/01/08 11:25:24;;;;;;;40.75;6.35;;;;;;;6.90;100.00;99948.75;5114175;28;20736;-78
2022/01/08 11:27:54;;;;;;;34.28;5.47;;;;;;;6.91;100.00;99942.97;5110947;28;20028;-77
2022/01/08 11:30:22;;;;;;;35.70;5.18;;;;;;;6.96;100.00;99921.94;5097460;28;20048;-77
2022/01/08 11:32:49;;;;;;;38.20;5.45;;;;;;;6.99;100.00;99929.66;5103400;28;20531;-77
2022/01/08 11:35:15;;;;;;;36.17;5.65;;;;;;;7.00;100.00;99920.28;5110929;27;20035;-74
2022/01/08 11:37:48;;;;;;;34.35;5.03;;;;;;;7.03;100.00;99916.94;5117003;28;20053;-74
2022/01/08 11:40:16;;;;;;;43.22;5.72;;;;;;;7.06;100.00;99902.56;5109085;28;20031;-74
2022/01/08 11:42:42;;;;;;;35.25;5.32;;;;;;;7.05;100.00;99890.69;5109385;28;20032;-74
2022/01/08 11:45:10;;;;;;;34.67;5.60;;;;;;;7.09;100.00;99879.91;5114215;28;20035;-74
2022/01/08 11:47:36;;;;;;;28.63;4.25;;;;;;;7.10;100.00;99876.03;5108575;28;20027;-74